sensor_id;sensor_type;location;lat;lon;timestamp;temperature;humidity
7216;DHT22;3649;48.798;9.798;2023-07-24T00:01:11;24.20;95.40
7216;DHT22;3649;48.798;9.798;2023-07-24T00:03:38;23.80;99.30
7216;DHT22;3649;48.798;9.798;2023-07-24T00:06:08;23.20;99.90
7216;DHT22;3649;48.798;9.798;2023-07-24T00:08:35;22.70;99.90
7216;DHT22;3649;48.798;9.798;2023-07-24T00:11:01;22.20;99.90
7216;DHT22;3649;48.798;9.798;2023-07-24T00:13:31;22.00;99.90
7216;DHT22;3649;48.798;9.798;2023-07-24T00:15:57;21.90;99.90
7216;DHT22;3649;48.798;9.798;2023-07-24T00:18:24;21.90;99.90
7216;DHT22;3649;48.798;9.798;2023-07-24T00:20:51;22.00;99.90
7216;DHT22;3649;48.798;9.798;2023-07-24T00:23:18;21.90;99.90
7216;DHT22;3649;48.798;9.798;2023-07-24T00:25:45;22.00;99.90
7216;DHT22;3649;48.798;9.798;2023-07-24T00:28:12;22.10;99.90
7216;DHT22;3649;48.798;9.798;2023-07-24T00:30:39;22.10;99.90
7216;DHT22;3649;48.798;9.798;2023-07-24T00:33:06;22.10;99.90
7216;DHT22;3649;48.798;9.798;2023-07-24T00:35:32;22.10;99.90
7216;DHT22;3649;48.798;9.798;2023-07-24T00:38:00;22.10;99.90
7216;DHT22;3649;48.798;9.798;2023-07-24T00:40:26;22.10;99.90
7216;DHT22;3649;48.798;9.798;2023-07-24T00:42:53;22.10;99.90
7216;DHT22;3649;48.798;9.798;2023-07-24T00:45:21;22.00;99.90
7216;DHT22;3649;48.798;9.798;2023-07-24T00:47:48;22.10;99.90
7216;DHT22;3649;48.798;9.798;2023-07-24T00:50:15;22.20;99.90
7216;DHT22;3649;48.798;9.798;2023-07-24T00:52:43;22.10;99.90
7216;DHT22;3649;48.798;9.798;2023-07-24T00:55:11;22.10;99.90
7216;DHT22;3649;48.798;9.798;2023-07-24T00:57:40;22.10;99.90
7216;DHT22;3649;48.798;9.798;2023-07-24T01:00:07;22.00;99.90
7216;DHT22;3649;48.798;9.798;2023-07-24T01:02:34;22.00;99.90
7216;DHT22;3649;48.798;9.798;2023-07-24T01:05:02;22.00;99.90
7216;DHT22;3649;48.798;9.798;2023-07-24T01:07:29;22.00;99.90
7216;DHT22;3649;48.798;9.798;2023-07-24T01:09:56;22.00;99.90
7216;DHT22;3649;48.798;9.798;2023-07-24T01:12:31;21.90;99.90
7216;DHT22;3649;48.798;9.798;2023-07-24T01:15:24;21.80;99.90
7216;DHT22;3649;48.798;9.798;2023-07-24T01:18:01;21.80;99.90
7216;DHT22;3649;48.798;9.798;2023-07-24T01:20:30;21.80;99.90
7216;DHT22;3649;48.798;9.798;2023-07-24T01:25:57;21.90;99.90
7216;DHT22;3649;48.798;9.798;2023-07-24T01:28:25;21.90;99.90
7216;DHT22;3649;48.798;9.798;2023-07-24T01:30:52;21.90;99.90
7216;DHT22;3649;48.798;9.798;2023-07-24T01:33:20;21.90;99.90
7216;DHT22;3649;48.798;9.798;2023-07-24T01:35:54;22.00;99.90
7216;DHT22;3649;48.798;9.798;2023-07-24T01:38:24;21.90;99.90
7216;DHT22;3649;48.798;9.798;2023-07-24T01:40:53;21.90;99.90
7216;DHT22;3649;48.798;9.798;2023-07-24T01:43:20;21.80;99.90
7216;DHT22;3649;48.798;9.798;2023-07-24T01:45:50;21.80;99.90
7216;DHT22;3649;48.798;9.798;2023-07-24T01:48:17;21.70;99.90
7216;DHT22;3649;48.798;9.798;2023-07-24T01:50:44;21.90;99.90
7216;DHT22;3649;48.798;9.798;2023-07-24T01:53:11;21.90;99.90
7216;DHT22;3649;48.798;9.798;2023-07-24T01:55:37;21.90;99.90
7216;DHT22;3649;48.798;9.798;2023-07-24T01:58:05;21.90;99.90
7216;DHT22;3649;48.798;9.798;2023-07-24T02:00:31;21.90;99.90
7216;DHT22;3649;48.798;9.798;2023-07-24T02:02:58;21.90;99.90
7216;DHT22;3649;48.798;9.798;2023-07-24T02:05:26;21.80;99.90
7216;DHT22;3649;48.798;9.798;2023-07-24T02:07:53;21.90;99.90
7216;DHT22;3649;48.798;9.798;2023-07-24T02:10:19;21.90;99.90
7216;DHT22;3649;48.798;9.798;2023-07-24T02:12:46;21.90;99.90
7216;DHT22;3649;48.798;9.798;2023-07-24T02:15:13;21.90;99.90
7216;DHT22;3649;48.798;9.798;2023-07-24T02:17:40;21.90;99.90
7216;DHT22;3649;48.798;9.798;2023-07-24T02:20:09;21.90;99.90
7216;DHT22;3649;48.798;9.798;2023-07-24T02:22:36;21.90;99.90
7216;DHT22;3649;48.798;9.798;2023-07-24T02:25:03;21.90;99.90
7216;DHT22;3649;48.798;9.798;2023-07-24T02:27:31;21.90;99.90
7216;DHT22;3649;48.798;9.798;2023-07-24T02:30:01;21.80;99.90
7216;DHT22;3649;48.798;9.798;2023-07-24T02:32:28;21.80;99.90
7216;DHT22;3649;48.798;9.798;2023-07-24T02:34:55;21.70;99.90
7216;DHT22;3649;48.798;9.798;2023-07-24T02:37:22;21.70;99.90
7216;DHT22;3649;48.798;9.798;2023-07-24T02:39:49;21.70;99.90
7216;DHT22;3649;48.798;9.798;2023-07-24T02:42:17;21.70;99.90
7216;DHT22;3649;48.798;9.798;2023-07-24T02:44:44;21.70;99.90
7216;DHT22;3649;48.798;9.798;2023-07-24T02:47:11;21.70;99.90
7216;DHT22;3649;48.798;9.798;2023-07-24T02:49:38;21.80;99.90
7216;DHT22;3649;48.798;9.798;2023-07-24T02:52:05;21.90;99.90
7216;DHT22;3649;48.798;9.798;2023-07-24T02:54:32;21.90;99.90
7216;DHT22;3649;48.798;9.798;2023-07-24T02:56:59;21.90;99.90
7216;DHT22;3649;48.798;9.798;2023-07-24T02:59:26;21.90;99.90
7216;DHT22;3649;48.798;9.798;2023-07-24T03:01:52;21.80;99.90
7216;DHT22;3649;48.798;9.798;2023-07-24T03:04:19;21.70;99.90
7216;DHT22;3649;48.798;9.798;2023-07-24T03:06:46;21.70;99.90
7216;DHT22;3649;48.798;9.798;2023-07-24T03:09:13;21.70;99.90
7216;DHT22;3649;48.798;9.798;2023-07-24T03:11:40;21.70;99.90
7216;DHT22;3649;48.798;9.798;2023-07-24T03:14:07;21.70;99.90
7216;DHT22;3649;48.798;9.798;2023-07-24T03:16:34;21.70;99.90
7216;DHT22;3649;48.798;9.798;2023-07-24T03:19:00;21.70;99.90
7216;DHT22;3649;48.798;9.798;2023-07-24T03:21:27;21.70;99.90
7216;DHT22;3649;48.798;9.798;2023-07-24T03:23:54;21.70;99.90
7216;DHT22;3649;48.798;9.798;2023-07-24T03:26:21;21.70;99.90
7216;DHT22;3649;48.798;9.798;2023-07-24T03:28:47;21.70;99.90
7216;DHT22;3649;48.798;9.798;2023-07-24T03:31:14;21.70;99.90
7216;DHT22;3649;48.798;9.798;2023-07-24T03:33:41;21.70;99.90
7216;DHT22;3649;48.798;9.798;2023-07-24T03:36:08;21.70;99.90
7216;DHT22;3649;48.798;9.798;2023-07-24T03:38:35;21.60;99.90
7216;DHT22;3649;48.798;9.798;2023-07-24T03:41:02;21.70;99.90
7216;DHT22;3649;48.798;9.798;2023-07-24T03:43:30;21.70;99.90
7216;DHT22;3649;48.798;9.798;2023-07-24T03:45:57;21.70;99.90
7216;DHT22;3649;48.798;9.798;2023-07-24T03:48:23;21.70;99.90
7216;DHT22;3649;48.798;9.798;2023-07-24T03:50:58;21.70;99.90
7216;DHT22;3649;48.798;9.798;2023-07-24T03:53:25;21.70;99.90
7216;DHT22;3649;48.798;9.798;2023-07-24T03:55:53;21.70;99.90
7216;DHT22;3649;48.798;9.798;2023-07-24T03:58:20;21.70;99.90
7216;DHT22;3649;48.798;9.798;2023-07-24T04:00:47;21.60;99.90
7216;DHT22;3649;48.798;9.798;2023-07-24T04:03:15;21.50;99.90
7216;DHT22;3649;48.798;9.798;2023-07-24T04:05:42;21.60;99.90
7216;DHT22;3649;48.798;9.798;2023-07-24T04:08:09;21.70;99.90
7216;DHT22;3649;48.798;9.798;2023-07-24T04:10:36;21.60;99.90
7216;DHT22;3649;48.798;9.798;2023-07-24T04:13:03;21.60;99.90
7216;DHT22;3649;48.798;9.798;2023-07-24T04:15:29;21.50;99.90
7216;DHT22;3649;48.798;9.798;2023-07-24T04:17:56;21.50;99.90
7216;DHT22;3649;48.798;9.798;2023-07-24T04:20:23;21.60;99.90
7216;DHT22;3649;48.798;9.798;2023-07-24T04:22:50;21.60;99.90
7216;DHT22;3649;48.798;9.798;2023-07-24T04:25:17;21.50;99.90
7216;DHT22;3649;48.798;9.798;2023-07-24T04:27:44;21.50;99.90
7216;DHT22;3649;48.798;9.798;2023-07-24T04:30:11;21.50;99.90
7216;DHT22;3649;48.798;9.798;2023-07-24T04:32:38;21.70;99.90
7216;DHT22;3649;48.798;9.798;2023-07-24T04:35:05;21.50;99.90
7216;DHT22;3649;48.798;9.798;2023-07-24T04:37:33;21.60;99.90
7216;DHT22;3649;48.798;9.798;2023-07-24T04:40:00;21.50;99.90
7216;DHT22;3649;48.798;9.798;2023-07-24T04:42:27;21.50;99.90
7216;DHT22;3649;48.798;9.798;2023-07-24T04:44:54;21.50;99.90
7216;DHT22;3649;48.798;9.798;2023-07-24T04:47:21;21.50;99.90
7216;DHT22;3649;48.798;9.798;2023-07-24T04:49:48;21.50;99.90
7216;DHT22;3649;48.798;9.798;2023-07-24T04:52:15;21.50;99.90
7216;DHT22;3649;48.798;9.798;2023-07-24T04:54:42;21.50;99.90
7216;DHT22;3649;48.798;9.798;2023-07-24T04:57:08;21.60;99.90
7216;DHT22;3649;48.798;9.798;2023-07-24T04:59:36;21.60;99.90
7216;DHT22;3649;48.798;9.798;2023-07-24T05:02:03;21.60;99.90
7216;DHT22;3649;48.798;9.798;2023-07-24T05:04:30;21.70;99.90
7216;DHT22;3649;48.798;9.798;2023-07-24T05:06:57;21.70;99.90
7216;DHT22;3649;48.798;9.798;2023-07-24T05:09:23;21.70;99.90
7216;DHT22;3649;48.798;9.798;2023-07-24T05:11:50;21.90;99.90
7216;DHT22;3649;48.798;9.798;2023-07-24T05:14:17;22.00;99.90
7216;DHT22;3649;48.798;9.798;2023-07-24T05:16:44;22.10;99.90
7216;DHT22;3649;48.798;9.798;2023-07-24T05:19:11;22.10;99.90
7216;DHT22;3649;48.798;9.798;2023-07-24T05:21:38;22.20;99.90
7216;DHT22;3649;48.798;9.798;2023-07-24T05:24:05;22.10;99.90
7216;DHT22;3649;48.798;9.798;2023-07-24T05:26:32;22.20;99.90
7216;DHT22;3649;48.798;9.798;2023-07-24T05:28:59;22.20;99.90
7216;DHT22;3649;48.798;9.798;2023-07-24T05:31:26;22.20;99.90
7216;DHT22;3649;48.798;9.798;2023-07-24T05:33:53;22.20;99.90
7216;DHT22;3649;48.798;9.798;2023-07-24T05:36:20;22.20;99.90
7216;DHT22;3649;48.798;9.798;2023-07-24T05:38:47;22.20;99.90
7216;DHT22;3649;48.798;9.798;2023-07-24T05:41:14;22.30;99.90
7216;DHT22;3649;48.798;9.798;2023-07-24T05:43:41;22.30;99.90
7216;DHT22;3649;48.798;9.798;2023-07-24T05:46:08;22.40;99.90
7216;DHT22;3649;48.798;9.798;2023-07-24T05:48:35;22.50;99.90
7216;DHT22;3649;48.798;9.798;2023-07-24T05:51:01;22.50;99.90
7216;DHT22;3649;48.798;9.798;2023-07-24T05:53:28;22.60;99.90
7216;DHT22;3649;48.798;9.798;2023-07-24T05:55:57;22.60;99.90
7216;DHT22;3649;48.798;9.798;2023-07-24T05:58:25;22.80;99.90
7216;DHT22;3649;48.798;9.798;2023-07-24T06:00:52;22.80;99.90
7216;DHT22;3649;48.798;9.798;2023-07-24T06:03:19;23.00;99.90
7216;DHT22;3649;48.798;9.798;2023-07-24T06:05:49;23.10;99.90
7216;DHT22;3649;48.798;9.798;2023-07-24T06:08:16;23.20;99.90
7216;DHT22;3649;48.798;9.798;2023-07-24T06:10:46;23.40;99.90
7216;DHT22;3649;48.798;9.798;2023-07-24T06:13:14;23.50;99.90
7216;DHT22;3649;48.798;9.798;2023-07-24T06:15:41;23.50;99.90
7216;DHT22;3649;48.798;9.798;2023-07-24T06:18:09;23.50;99.90
7216;DHT22;3649;48.798;9.798;2023-07-24T06:20:36;23.60;99.90
7216;DHT22;3649;48.798;9.798;2023-07-24T06:23:03;23.70;99.90
7216;DHT22;3649;48.798;9.798;2023-07-24T06:25:31;23.70;99.90
7216;DHT22;3649;48.798;9.798;2023-07-24T06:27:58;23.70;99.90
7216;DHT22;3649;48.798;9.798;2023-07-24T06:30:25;23.80;99.90
7216;DHT22;3649;48.798;9.798;2023-07-24T06:32:52;23.80;99.90
7216;DHT22;3649;48.798;9.798;2023-07-24T06:35:19;23.80;99.90
7216;DHT22;3649;48.798;9.798;2023-07-24T06:37:46;23.90;99.90
7216;DHT22;3649;48.798;9.798;2023-07-24T06:40:13;24.00;99.90
7216;DHT22;3649;48.798;9.798;2023-07-24T06:42:40;24.00;99.90
7216;DHT22;3649;48.798;9.798;2023-07-24T06:45:07;24.00;99.90
7216;DHT22;3649;48.798;9.798;2023-07-24T06:47:34;24.00;99.90
7216;DHT22;3649;48.798;9.798;2023-07-24T06:50:01;23.90;99.90
7216;DHT22;3649;48.798;9.798;2023-07-24T06:52:29;24.00;99.90
7216;DHT22;3649;48.798;9.798;2023-07-24T06:54:56;24.00;99.90
7216;DHT22;3649;48.798;9.798;2023-07-24T06:57:25;24.00;99.90
7216;DHT22;3649;48.798;9.798;2023-07-24T06:59:52;24.10;99.90
7216;DHT22;3649;48.798;9.798;2023-07-24T07:02:21;24.10;99.90
7216;DHT22;3649;48.798;9.798;2023-07-24T07:04:48;24.10;99.90
7216;DHT22;3649;48.798;9.798;2023-07-24T07:07:15;24.00;99.90
7216;DHT22;3649;48.798;9.798;2023-07-24T07:09:42;24.10;99.90
7216;DHT22;3649;48.798;9.798;2023-07-24T07:12:08;24.20;99.90
7216;DHT22;3649;48.798;9.798;2023-07-24T07:14:35;24.30;99.90
7216;DHT22;3649;48.798;9.798;2023-07-24T07:17:02;24.30;99.90
7216;DHT22;3649;48.798;9.798;2023-07-24T07:19:30;24.30;99.90
7216;DHT22;3649;48.798;9.798;2023-07-24T07:21:57;24.30;99.90
7216;DHT22;3649;48.798;9.798;2023-07-24T07:24:24;24.30;99.90
7216;DHT22;3649;48.798;9.798;2023-07-24T07:26:51;24.40;99.90
7216;DHT22;3649;48.798;9.798;2023-07-24T07:29:18;24.30;99.90
7216;DHT22;3649;48.798;9.798;2023-07-24T07:31:44;24.30;99.90
7216;DHT22;3649;48.798;9.798;2023-07-24T07:34:11;24.40;99.90
7216;DHT22;3649;48.798;9.798;2023-07-24T07:36:38;24.40;99.90
7216;DHT22;3649;48.798;9.798;2023-07-24T07:39:05;24.40;99.90
7216;DHT22;3649;48.798;9.798;2023-07-24T07:41:32;24.50;99.90
7216;DHT22;3649;48.798;9.798;2023-07-24T07:43:59;24.50;99.90
7216;DHT22;3649;48.798;9.798;2023-07-24T07:46:26;24.50;99.90
7216;DHT22;3649;48.798;9.798;2023-07-24T07:48:53;24.40;99.90
7216;DHT22;3649;48.798;9.798;2023-07-24T07:51:20;24.40;99.90
7216;DHT22;3649;48.798;9.798;2023-07-24T07:53:47;24.30;99.90
7216;DHT22;3649;48.798;9.798;2023-07-24T07:56:14;24.40;99.90
7216;DHT22;3649;48.798;9.798;2023-07-24T07:58:41;24.40;99.90
7216;DHT22;3649;48.798;9.798;2023-07-24T08:01:08;24.50;99.90
7216;DHT22;3649;48.798;9.798;2023-07-24T08:03:34;24.50;99.90
7216;DHT22;3649;48.798;9.798;2023-07-24T08:06:01;24.60;99.90
7216;DHT22;3649;48.798;9.798;2023-07-24T08:08:28;24.60;99.90
7216;DHT22;3649;48.798;9.798;2023-07-24T08:10:55;24.60;99.90
7216;DHT22;3649;48.798;9.798;2023-07-24T08:13:22;24.60;99.90
7216;DHT22;3649;48.798;9.798;2023-07-24T08:15:49;24.60;99.90
7216;DHT22;3649;48.798;9.798;2023-07-24T08:18:16;24.70;99.90
7216;DHT22;3649;48.798;9.798;2023-07-24T08:20:43;24.70;99.90
7216;DHT22;3649;48.798;9.798;2023-07-24T08:23:10;24.70;99.90
7216;DHT22;3649;48.798;9.798;2023-07-24T08:25:40;24.80;99.90
7216;DHT22;3649;48.798;9.798;2023-07-24T08:28:06;24.80;99.90
7216;DHT22;3649;48.798;9.798;2023-07-24T08:30:34;24.90;99.90
7216;DHT22;3649;48.798;9.798;2023-07-24T08:33:01;24.90;99.90
7216;DHT22;3649;48.798;9.798;2023-07-24T08:35:28;25.00;99.90
7216;DHT22;3649;48.798;9.798;2023-07-24T08:37:55;25.00;99.90
7216;DHT22;3649;48.798;9.798;2023-07-24T08:40:22;25.00;99.90
7216;DHT22;3649;48.798;9.798;2023-07-24T08:42:49;25.00;99.90
7216;DHT22;3649;48.798;9.798;2023-07-24T08:45:20;25.10;99.90
7216;DHT22;3649;48.798;9.798;2023-07-24T08:47:48;25.10;99.90
7216;DHT22;3649;48.798;9.798;2023-07-24T08:50:17;25.10;99.90
7216;DHT22;3649;48.798;9.798;2023-07-24T08:52:44;25.10;99.90
7216;DHT22;3649;48.798;9.798;2023-07-24T08:55:13;25.10;99.90
7216;DHT22;3649;48.798;9.798;2023-07-24T08:57:41;25.20;99.90
7216;DHT22;3649;48.798;9.798;2023-07-24T09:00:08;25.20;99.90
7216;DHT22;3649;48.798;9.798;2023-07-24T09:02:35;25.30;99.90
7216;DHT22;3649;48.798;9.798;2023-07-24T09:05:03;25.30;99.90
7216;DHT22;3649;48.798;9.798;2023-07-24T09:07:31;25.40;99.90
7216;DHT22;3649;48.798;9.798;2023-07-24T09:09:58;25.50;99.90
7216;DHT22;3649;48.798;9.798;2023-07-24T09:12:25;25.50;99.90
7216;DHT22;3649;48.798;9.798;2023-07-24T09:15:06;25.50;99.90
7216;DHT22;3649;48.798;9.798;2023-07-24T09:17:34;25.60;99.90
7216;DHT22;3649;48.798;9.798;2023-07-24T09:20:01;25.50;99.90
7216;DHT22;3649;48.798;9.798;2023-07-24T09:22:29;25.50;99.90
7216;DHT22;3649;48.798;9.798;2023-07-24T09:24:57;25.50;99.90
7216;DHT22;3649;48.798;9.798;2023-07-24T09:27:27;25.50;99.90
7216;DHT22;3649;48.798;9.798;2023-07-24T09:29:55;25.40;99.90
7216;DHT22;3649;48.798;9.798;2023-07-24T09:32:24;25.30;99.90
7216;DHT22;3649;48.798;9.798;2023-07-24T09:34:52;25.40;99.90
7216;DHT22;3649;48.798;9.798;2023-07-24T09:37:34;25.30;99.90
7216;DHT22;3649;48.798;9.798;2023-07-24T09:40:04;25.20;99.90
7216;DHT22;3649;48.798;9.798;2023-07-24T09:42:33;25.20;99.90
7216;DHT22;3649;48.798;9.798;2023-07-24T09:45:02;25.20;99.90
7216;DHT22;3649;48.798;9.798;2023-07-24T09:47:30;25.20;99.90
7216;DHT22;3649;48.798;9.798;2023-07-24T09:50:18;25.20;99.90
7216;DHT22;3649;48.798;9.798;2023-07-24T09:52:46;25.20;99.90
7216;DHT22;3649;48.798;9.798;2023-07-24T09:55:25;25.30;99.90
7216;DHT22;3649;48.798;9.798;2023-07-24T09:57:58;25.30;99.90
7216;DHT22;3649;48.798;9.798;2023-07-24T10:00:27;25.40;99.90
7216;DHT22;3649;48.798;9.798;2023-07-24T10:02:55;25.40;99.90
7216;DHT22;3649;48.798;9.798;2023-07-24T10:05:23;25.50;99.90
7216;DHT22;3649;48.798;9.798;2023-07-24T10:07:50;25.50;99.90
7216;DHT22;3649;48.798;9.798;2023-07-24T10:10:19;25.50;99.90
7216;DHT22;3649;48.798;9.798;2023-07-24T10:12:48;25.40;99.90
7216;DHT22;3649;48.798;9.798;2023-07-24T10:15:16;25.50;99.90
7216;DHT22;3649;48.798;9.798;2023-07-24T10:17:43;25.50;99.90
7216;DHT22;3649;48.798;9.798;2023-07-24T10:20:11;25.40;99.90
7216;DHT22;3649;48.798;9.798;2023-07-24T10:22:41;25.30;99.90
7216;DHT22;3649;48.798;9.798;2023-07-24T10:25:09;25.30;99.90
7216;DHT22;3649;48.798;9.798;2023-07-24T10:27:44;25.30;99.90
7216;DHT22;3649;48.798;9.798;2023-07-24T10:30:13;25.30;99.90
7216;DHT22;3649;48.798;9.798;2023-07-24T10:38:10;25.20;99.90
7216;DHT22;3649;48.798;9.798;2023-07-24T10:40:39;25.30;99.90
7216;DHT22;3649;48.798;9.798;2023-07-24T10:43:14;25.30;99.90
7216;DHT22;3649;48.798;9.798;2023-07-24T10:45:49;25.20;99.90
7216;DHT22;3649;48.798;9.798;2023-07-24T10:48:17;25.10;99.90
7216;DHT22;3649;48.798;9.798;2023-07-24T10:50:46;25.10;99.90
7216;DHT22;3649;48.798;9.798;2023-07-24T10:53:21;25.00;99.90
7216;DHT22;3649;48.798;9.798;2023-07-24T10:55:50;24.80;99.90
7216;DHT22;3649;48.798;9.798;2023-07-24T10:58:19;24.70;99.90
7216;DHT22;3649;48.798;9.798;2023-07-24T11:00:46;24.50;99.90
7216;DHT22;3649;48.798;9.798;2023-07-24T11:03:15;24.30;99.90
7216;DHT22;3649;48.798;9.798;2023-07-24T11:05:43;24.20;99.90
7216;DHT22;3649;48.798;9.798;2023-07-24T11:08:14;24.10;99.90
7216;DHT22;3649;48.798;9.798;2023-07-24T11:10:52;24.10;99.90
7216;DHT22;3649;48.798;9.798;2023-07-24T11:13:21;24.00;99.90
7216;DHT22;3649;48.798;9.798;2023-07-24T11:15:49;24.00;99.90
7216;DHT22;3649;48.798;9.798;2023-07-24T11:18:16;24.00;99.90
7216;DHT22;3649;48.798;9.798;2023-07-24T11:20:48;24.00;99.90
7216;DHT22;3649;48.798;9.798;2023-07-24T11:23:15;23.90;99.90
7216;DHT22;3649;48.798;9.798;2023-07-24T11:25:43;24.00;99.90
7216;DHT22;3649;48.798;9.798;2023-07-24T11:28:11;23.90;99.90
7216;DHT22;3649;48.798;9.798;2023-07-24T11:30:39;23.80;99.90
7216;DHT22;3649;48.798;9.798;2023-07-24T11:33:08;23.80;99.90
7216;DHT22;3649;48.798;9.798;2023-07-24T11:35:36;23.80;99.90
7216;DHT22;3649;48.798;9.798;2023-07-24T11:38:06;23.80;99.90
7216;DHT22;3649;48.798;9.798;2023-07-24T11:40:43;23.80;99.90
7216;DHT22;3649;48.798;9.798;2023-07-24T11:43:21;23.80;99.90
7216;DHT22;3649;48.798;9.798;2023-07-24T11:45:49;23.80;99.90
7216;DHT22;3649;48.798;9.798;2023-07-24T11:48:20;23.90;99.90
7216;DHT22;3649;48.798;9.798;2023-07-24T11:50:52;24.00;99.90
7216;DHT22;3649;48.798;9.798;2023-07-24T11:53:26;24.00;99.90
7216;DHT22;3649;48.798;9.798;2023-07-24T11:55:55;24.10;99.90
7216;DHT22;3649;48.798;9.798;2023-07-24T11:58:26;24.00;99.90
7216;DHT22;3649;48.798;9.798;2023-07-24T12:00:53;24.00;99.90
7216;DHT22;3649;48.798;9.798;2023-07-24T12:03:22;24.00;99.90
7216;DHT22;3649;48.798;9.798;2023-07-24T12:05:49;24.00;99.90
7216;DHT22;3649;48.798;9.798;2023-07-24T12:08:31;24.00;99.90
7216;DHT22;3649;48.798;9.798;2023-07-24T12:10:59;24.00;99.90
7216;DHT22;3649;48.798;9.798;2023-07-24T12:13:26;24.10;99.90
7216;DHT22;3649;48.798;9.798;2023-07-24T12:15:53;24.20;99.90
7216;DHT22;3649;48.798;9.798;2023-07-24T12:18:22;24.30;99.90
7216;DHT22;3649;48.798;9.798;2023-07-24T12:20:49;24.50;99.90
7216;DHT22;3649;48.798;9.798;2023-07-24T12:23:16;24.60;99.90
7216;DHT22;3649;48.798;9.798;2023-07-24T12:25:43;24.70;99.90
7216;DHT22;3649;48.798;9.798;2023-07-24T12:28:11;24.70;99.90
7216;DHT22;3649;48.798;9.798;2023-07-24T12:30:37;24.60;99.90
7216;DHT22;3649;48.798;9.798;2023-07-24T12:33:04;24.60;99.90
7216;DHT22;3649;48.798;9.798;2023-07-24T12:35:31;24.60;99.90
7216;DHT22;3649;48.798;9.798;2023-07-24T12:37:58;24.60;99.90
7216;DHT22;3649;48.798;9.798;2023-07-24T12:40:25;24.70;99.90
7216;DHT22;3649;48.798;9.798;2023-07-24T12:42:52;24.80;99.90
7216;DHT22;3649;48.798;9.798;2023-07-24T12:45:19;24.80;99.90
7216;DHT22;3649;48.798;9.798;2023-07-24T12:47:46;24.70;99.90
7216;DHT22;3649;48.798;9.798;2023-07-24T12:50:13;24.90;99.90
7216;DHT22;3649;48.798;9.798;2023-07-24T12:52:40;24.90;99.90
7216;DHT22;3649;48.798;9.798;2023-07-24T12:55:08;25.10;99.90
7216;DHT22;3649;48.798;9.798;2023-07-24T12:57:35;25.10;99.90
7216;DHT22;3649;48.798;9.798;2023-07-24T13:00:02;25.10;99.90
7216;DHT22;3649;48.798;9.798;2023-07-24T13:02:29;25.10;99.90
7216;DHT22;3649;48.798;9.798;2023-07-24T13:04:56;25.10;99.90
7216;DHT22;3649;48.798;9.798;2023-07-24T13:07:23;25.10;99.90
7216;DHT22;3649;48.798;9.798;2023-07-24T13:09:50;25.10;99.90
7216;DHT22;3649;48.798;9.798;2023-07-24T13:12:17;25.20;99.90
7216;DHT22;3649;48.798;9.798;2023-07-24T13:14:44;25.10;99.90
7216;DHT22;3649;48.798;9.798;2023-07-24T13:17:11;25.40;99.90
7216;DHT22;3649;48.798;9.798;2023-07-24T13:19:38;25.50;99.90
7216;DHT22;3649;48.798;9.798;2023-07-24T13:22:05;25.50;99.90
7216;DHT22;3649;48.798;9.798;2023-07-24T13:24:32;25.50;99.90
7216;DHT22;3649;48.798;9.798;2023-07-24T13:26:59;25.50;99.90
7216;DHT22;3649;48.798;9.798;2023-07-24T13:29:26;25.50;99.90
7216;DHT22;3649;48.798;9.798;2023-07-24T13:31:53;25.50;99.90
7216;DHT22;3649;48.798;9.798;2023-07-24T13:34:20;25.50;99.90
7216;DHT22;3649;48.798;9.798;2023-07-24T13:36:47;25.50;99.90
7216;DHT22;3649;48.798;9.798;2023-07-24T13:39:14;25.60;99.90
7216;DHT22;3649;48.798;9.798;2023-07-24T13:41:41;25.60;99.90
7216;DHT22;3649;48.798;9.798;2023-07-24T13:44:09;25.60;99.90
7216;DHT22;3649;48.798;9.798;2023-07-24T13:46:36;25.60;99.90
7216;DHT22;3649;48.798;9.798;2023-07-24T13:49:06;25.60;99.90
7216;DHT22;3649;48.798;9.798;2023-07-24T13:51:33;25.60;99.90
7216;DHT22;3649;48.798;9.798;2023-07-24T13:54:00;25.50;99.90
7216;DHT22;3649;48.798;9.798;2023-07-24T13:56:29;25.50;99.90
7216;DHT22;3649;48.798;9.798;2023-07-24T13:58:58;25.60;99.90
7216;DHT22;3649;48.798;9.798;2023-07-24T14:01:25;25.60;99.90
7216;DHT22;3649;48.798;9.798;2023-07-24T14:03:52;25.60;99.90
7216;DHT22;3649;48.798;9.798;2023-07-24T14:06:19;25.40;99.90
7216;DHT22;3649;48.798;9.798;2023-07-24T14:08:46;25.60;99.90
7216;DHT22;3649;48.798;9.798;2023-07-24T14:11:13;25.60;99.90
7216;DHT22;3649;48.798;9.798;2023-07-24T14:13:40;25.60;99.90
7216;DHT22;3649;48.798;9.798;2023-07-24T14:16:06;25.60;99.90
7216;DHT22;3649;48.798;9.798;2023-07-24T14:18:34;25.60;99.90
7216;DHT22;3649;48.798;9.798;2023-07-24T14:21:01;25.60;99.90
7216;DHT22;3649;48.798;9.798;2023-07-24T14:23:27;25.60;99.90
7216;DHT22;3649;48.798;9.798;2023-07-24T14:25:54;25.50;99.90
7216;DHT22;3649;48.798;9.798;2023-07-24T14:28:21;25.60;99.90
7216;DHT22;3649;48.798;9.798;2023-07-24T14:30:48;25.60;99.90
7216;DHT22;3649;48.798;9.798;2023-07-24T14:33:15;25.60;99.90
7216;DHT22;3649;48.798;9.798;2023-07-24T14:35:42;25.50;99.90
7216;DHT22;3649;48.798;9.798;2023-07-24T14:38:09;25.60;99.90
7216;DHT22;3649;48.798;9.798;2023-07-24T14:40:36;25.60;99.90
7216;DHT22;3649;48.798;9.798;2023-07-24T14:43:03;25.60;99.90
7216;DHT22;3649;48.798;9.798;2023-07-24T14:45:33;25.50;99.90
7216;DHT22;3649;48.798;9.798;2023-07-24T14:48:00;25.50;99.90
7216;DHT22;3649;48.798;9.798;2023-07-24T14:50:27;25.50;99.90
7216;DHT22;3649;48.798;9.798;2023-07-24T14:52:54;25.50;99.90
7216;DHT22;3649;48.798;9.798;2023-07-24T14:55:21;25.50;99.90
7216;DHT22;3649;48.798;9.798;2023-07-24T14:57:48;25.60;99.90
7216;DHT22;3649;48.798;9.798;2023-07-24T15:00:15;25.70;99.90
7216;DHT22;3649;48.798;9.798;2023-07-24T15:02:43;25.60;99.90
7216;DHT22;3649;48.798;9.798;2023-07-24T15:05:10;25.60;99.90
7216;DHT22;3649;48.798;9.798;2023-07-24T15:07:37;25.60;99.90
7216;DHT22;3649;48.798;9.798;2023-07-24T15:10:05;25.60;99.90
7216;DHT22;3649;48.798;9.798;2023-07-24T15:12:32;25.70;99.90
7216;DHT22;3649;48.798;9.798;2023-07-24T15:14:59;25.70;99.90
7216;DHT22;3649;48.798;9.798;2023-07-24T15:17:26;25.70;99.90
7216;DHT22;3649;48.798;9.798;2023-07-24T15:19:53;25.60;99.90
7216;DHT22;3649;48.798;9.798;2023-07-24T15:22:20;25.70;99.90
7216;DHT22;3649;48.798;9.798;2023-07-24T15:24:47;25.70;99.90
7216;DHT22;3649;48.798;9.798;2023-07-24T15:27:15;25.70;99.90
7216;DHT22;3649;48.798;9.798;2023-07-24T15:29:42;25.60;99.90
7216;DHT22;3649;48.798;9.798;2023-07-24T15:32:08;25.60;99.90
7216;DHT22;3649;48.798;9.798;2023-07-24T15:34:35;25.70;99.90
7216;DHT22;3649;48.798;9.798;2023-07-24T15:37:05;25.50;99.90
7216;DHT22;3649;48.798;9.798;2023-07-24T15:39:32;25.50;99.90
7216;DHT22;3649;48.798;9.798;2023-07-24T15:41:59;25.50;99.90
7216;DHT22;3649;48.798;9.798;2023-07-24T15:44:26;25.50;99.90
7216;DHT22;3649;48.798;9.798;2023-07-24T15:46:53;25.40;99.90
7216;DHT22;3649;48.798;9.798;2023-07-24T15:49:20;25.40;99.90
7216;DHT22;3649;48.798;9.798;2023-07-24T15:51:47;25.40;99.90
7216;DHT22;3649;48.798;9.798;2023-07-24T15:54:14;25.40;99.90
7216;DHT22;3649;48.798;9.798;2023-07-24T15:56:41;25.40;99.90
7216;DHT22;3649;48.798;9.798;2023-07-24T15:59:08;25.30;99.90
7216;DHT22;3649;48.798;9.798;2023-07-24T16:01:36;25.30;99.90
7216;DHT22;3649;48.798;9.798;2023-07-24T16:04:03;25.30;99.90
7216;DHT22;3649;48.798;9.798;2023-07-24T16:06:53;25.30;99.90
7216;DHT22;3649;48.798;9.798;2023-07-24T16:09:33;25.30;99.90
7216;DHT22;3649;48.798;9.798;2023-07-24T16:12:00;25.30;99.90
7216;DHT22;3649;48.798;9.798;2023-07-24T16:14:27;25.20;99.90